Athens, Arkansas
Current Conditions -  °F | °C
As of 9:55 AM on Sunday 23 Nov 2014 (Local Time) from KMEZ Reporting Station
Overcast Overcast  
Wind Chill: 16°   Ceiling: 1200
Heat Index: 16°   Visibility: 2.5mi
Dew Point: 16°   Wind: 3mph
Humidity: 100%   Direction: 160°SSE
Pressure: 29.54"   Gusts: NA
Location:  34.2871°N, 94.1174°W
Report Text: KMEZ 231555Z AUTO 16003KT 2 1/2SM OVC012 16/16 A2954 RMK AO2 P0002
Loading
Personal Weather Stations






























Interactive Weather Map New forecast layout! Learn more

10-Day Weather Forecast

Advertisements
Track Severe Weather on mobile